Training Ship Golden Bear — NMRY — position and weather

sailwx.info

Track history (hours):
 
Tides and Currents Weather Stations Pressure Air Temp Water Temp Dewpoint Dewpoint Depression Visibility Wind Speed Wind Dir Waves Ship Positions

Training Ship Golden Bear (United States)

Training ship for California Maritime Academy. Ex USNS Maury T-AGS-39. Sister ship of training ship "State of Maine". See also http://www.csum.edu/MarinePrograms/tsgb.asp.

Ship's website: http://cma-virtualftv.csum.edu/wordpress/

Last reported at 2015-Apr-30 06:00 UTC. Time now 2015-May-04 17:05 UTC.
Position N 23°00' W 112°00'.

Type: Ship. MMSI: 367978000.

Wind from 120 at 6 knots

Barometer 1008.5 mb
Air temperature 20.9 ° C
Visibility: greater than 5.4 NM
Dewpoint 19.0 ° C
Water temperature 22.0 ° C

Date/timePositionNaut miles runAvg speedWind from/ knotsBaromVisibWave heightAir tempDewpointWater temp
2015-Apr-30 06:00N 23°00' W 112°00'16313.6 120 / 61008.5 5.4 20.919.022.0
2015-Apr-29 18:00N 25°18' W 113°36'18415.4 290 / 101010.1 5.4 0.520.019.017.4
2015-Apr-29 06:00N 27°48' W 115°36'17914.9 330 / 131101.1 5.4 18.0
2015-Apr-28 18:00N 30°36' W 116°48'9114.2 150 / 41101.210.8 1.017.0 17.2
2015-Apr-28 11:33N 32°03' W 117°21'1515.4
2015-Apr-28 10:33N 32°17' W 117°27'1515.0
2015-Apr-28 09:33N 32°32' W 117°32'1414.5
2015-Apr-28 08:33N 32°44' W 117°41'1514.7
2015-Apr-28 07:33N 32°56' W 117°51'1515.3
2015-Apr-28 06:33N 33°10' W 117°59'1514.9
2015-Apr-28 05:33N 33°23' W 118°08'1514.5
2015-Apr-28 04:33N 33°37' W 118°13'7 5.5
2015-Apr-28 03:13N 33°44' W 118°10'0 0.0
2015-Apr-28 02:31N 33°44' W 118°10'0 0.0
2015-Apr-28 01:31N 33°44' W 118°10'0 0.0
2015-Apr-28 00:31N 33°44' W 118°10'0 0.0
2015-Apr-27 23:31N 33°44' W 118°10'0 0.1
2015-Apr-27 22:31N 33°44' W 118°10'0 0.0
2015-Apr-27 21:31N 33°44' W 118°10'0 0.0
2015-Apr-27 20:31N 33°44' W 118°10'0 0.0
2015-Apr-27 19:31N 33°44' W 118°10'0 0.0
2015-Apr-27 18:31N 33°44' W 118°10'0 0.0
2015-Apr-27 17:31N 33°44' W 118°10'0 0.1
2015-Apr-27 16:31N 33°44' W 118°10'0 0.1
2015-Apr-27 15:34N 33°44' W 118°10'6 5.9
2015-Apr-27 14:34N 33°38' W 118°12'1111.4
2015-Apr-27 13:33N 33°39' W 118°26'1615.9
2015-Apr-27 12:33N 33°46' W 118°42'9317.9
2015-Apr-27 07:21N 34°19' W 120°28'8317.3
2015-Apr-27 02:32N 35°20' W 121°37'1818.7
2015-Apr-27 01:34N 35°36' W 121°49'1918.8
2015-Apr-27 00:33N 35°52' W 122°01'1919.3
2015-Apr-26 23:33N 36°08' W 122°14'1918.8
2015-Apr-26 22:33N 36°25' W 122°24'1818.4
2015-Apr-26 21:33N 36°42' W 122°32'1817.9
2015-Apr-26 20:34N 36°59' W 122°39'1717.1
2015-Apr-26 19:33N 37°16' W 122°44'1716.7
2015-Apr-26 18:33N 37°32' W 122°43'1413.7
2015-Apr-26 17:33N 37°46' W 122°40'1313.3
2015-Apr-26 16:33N 37°52' W 122°25'1010.5
2015-Apr-26 15:33N 38°02' W 122°21'  
Track history (hours):
 
Tides and Currents Weather Stations Pressure Air Temp Water Temp Dewpoint Dewpoint Depression Visibility Wind Speed Wind Dir Waves Ship Positions

Training Ship Golden Bear (United States)

Training ship for California Maritime Academy. Ex USNS Maury T-AGS-39. Sister ship of training ship "State of Maine". See also http://www.csum.edu/MarinePrograms/tsgb.asp.

Ship's website: http://cma-virtualftv.csum.edu/wordpress/

Last reported at 2015-Apr-30 06:00 UTC. Time now 2015-May-04 17:05 UTC.
Position N 23°00' W 112°00'.

Type: Ship. MMSI: 367978000.

Wind from 120 at 6 knots

Barometer 1008.5 mb
Air temperature 20.9 ° C
Visibility: greater than 5.4 NM
Dewpoint 19.0 ° C
Water temperature 22.0 ° C

Date/timePositionNaut miles runAvg speedWind from/ knotsBaromVisibWave heightAir tempDewpointWater temp
2015-Apr-30 06:00N 23°00' W 112°00'16313.6 120 / 61008.5 5.4 20.919.022.0
2015-Apr-29 18:00N 25°18' W 113°36'18415.4 290 / 101010.1 5.4 0.520.019.017.4
2015-Apr-29 06:00N 27°48' W 115°36'17914.9 330 / 131101.1 5.4 18.0
2015-Apr-28 18:00N 30°36' W 116°48'9114.2 150 / 41101.210.8 1.017.0 17.2
2015-Apr-28 11:33N 32°03' W 117°21'1515.4
2015-Apr-28 10:33N 32°17' W 117°27'1515.0
2015-Apr-28 09:33N 32°32' W 117°32'1414.5
2015-Apr-28 08:33N 32°44' W 117°41'1514.7
2015-Apr-28 07:33N 32°56' W 117°51'1515.3
2015-Apr-28 06:33N 33°10' W 117°59'1514.9
2015-Apr-28 05:33N 33°23' W 118°08'1514.5
2015-Apr-28 04:33N 33°37' W 118°13'7 5.5
2015-Apr-28 03:13N 33°44' W 118°10'0 0.0
2015-Apr-28 02:31N 33°44' W 118°10'0 0.0
2015-Apr-28 01:31N 33°44' W 118°10'0 0.0
2015-Apr-28 00:31N 33°44' W 118°10'0 0.0
2015-Apr-27 23:31N 33°44' W 118°10'0 0.1
2015-Apr-27 22:31N 33°44' W 118°10'0 0.0
2015-Apr-27 21:31N 33°44' W 118°10'0 0.0
2015-Apr-27 20:31N 33°44' W 118°10'0 0.0
2015-Apr-27 19:31N 33°44' W 118°10'0 0.0
2015-Apr-27 18:31N 33°44' W 118°10'0 0.0
2015-Apr-27 17:31N 33°44' W 118°10'0 0.1
2015-Apr-27 16:31N 33°44' W 118°10'0 0.1
2015-Apr-27 15:34N 33°44' W 118°10'6 5.9
2015-Apr-27 14:34N 33°38' W 118°12'1111.4
2015-Apr-27 13:33N 33°39' W 118°26'1615.9
2015-Apr-27 12:33N 33°46' W 118°42'9317.9
2015-Apr-27 07:21N 34°19' W 120°28'8317.3
2015-Apr-27 02:32N 35°20' W 121°37'1818.7
2015-Apr-27 01:34N 35°36' W 121°49'1918.8
2015-Apr-27 00:33N 35°52' W 122°01'1919.3
2015-Apr-26 23:33N 36°08' W 122°14'1918.8
2015-Apr-26 22:33N 36°25' W 122°24'1818.4
2015-Apr-26 21:33N 36°42' W 122°32'1817.9
2015-Apr-26 20:34N 36°59' W 122°39'1717.1
2015-Apr-26 19:33N 37°16' W 122°44'1716.7
2015-Apr-26 18:33N 37°32' W 122°43'1413.7
2015-Apr-26 17:33N 37°46' W 122°40'1313.3
2015-Apr-26 16:33N 37°52' W 122°25'1010.5
2015-Apr-26 15:33N 38°02' W 122°21'  

Dump ship's entire track history